Terminal Aerodrome Forecast
Issued by NWS Sterling, VA

Current Version | Previous Version | Text Only | Print | Product List | Glossary Off
Versions: 1 2 3 4 5 6 7 8 9 10 11 12 13 14 15 16 17 18 19 20 21 22 23 24

133
FTUS41 KLWX 131123
TAFIAD
TAF
KIAD 131123Z 1312/1418 28016G26KT P6SM FEW060
     FM132100 25009KT P6SM BKN080
     FM132300 20007KT P6SM OVC080
     FM141100 25008KT P6SM BKN035
     FM141400 32010G18KT P6SM SCT035=

USA.gov is the U.S. government's official web portal to all federal, state and local government web resources and services.